Time;durP1;ratioP1;P1;durP2;ratioP2;P2;SDS_P1;SDS_P2;PMS_P1;PMS_P2;Temp;Humidity;BMP_temperature;BMP_pressure;BME280_temperature;BME280_humidity;BME280_pressure;Samples;Min_cycle;Max_cycle;Signal;HPM_P1;HPM_P2
2023/05/30 00:00:05;;;;;;;7.23;2.50;;;13.30;99.90;;;;;;5059997;28;20446;-81
2023/05/30 00:02:34;;;;;;;5.97;1.77;;;13.30;99.90;;;;;;5059952;28;20467;-81
2023/05/30 00:05:02;;;;;;;14.20;2.50;;;13.20;99.90;;;;;;5059695;28;20453;-82
2023/05/30 00:07:29;;;;;;;7.80;1.60;;;13.20;99.90;;;;;;5060796;28;20464;-82
2023/05/30 00:09:57;;;;;;;7.80;2.03;;;13.20;99.90;;;;;;5060734;28;20490;-81
2023/05/30 00:12:24;;;;;;;13.53;2.00;;;13.10;99.90;;;;;;5059440;28;20483;-79
2023/05/30 00:14:51;;;;;;;9.70;2.70;;;13.10;99.90;;;;;;5058639;28;20458;-80
2023/05/30 00:17:20;;;;;;;8.03;2.40;;;13.00;99.90;;;;;;5057045;28;20481;-82
2023/05/30 00:19:47;;;;;;;5.70;1.93;;;13.00;99.90;;;;;;5058020;28;20948;-82
2023/05/30 00:22:14;;;;;;;8.70;2.10;;;12.90;99.90;;;;;;5057470;28;20467;-82
2023/05/30 00:24:41;;;;;;;10.97;2.37;;;12.90;99.90;;;;;;5057467;28;20486;-82
2023/05/30 00:27:09;;;;;;;13.10;2.27;;;12.90;99.90;;;;;;5057231;28;20548;-82
2023/05/30 00:29:36;;;;;;;7.90;2.03;;;12.80;99.90;;;;;;5057151;28;20502;-82
2023/05/30 00:32:03;;;;;;;9.97;2.47;;;12.80;99.90;;;;;;5057567;28;20556;-82
2023/05/30 00:34:30;;;;;;;12.23;2.53;;;12.80;99.90;;;;;;5056182;28;20456;-82
2023/05/30 00:36:57;;;;;;;13.13;2.27;;;12.80;99.90;;;;;;5056894;28;20475;-82
2023/05/30 00:39:23;;;;;;;6.50;2.30;;;12.80;1.00;;;;;;5057174;28;20434;-82
2023/05/30 00:41:50;;;;;;;6.80;2.13;;;12.80;1.00;;;;;;5057391;28;20484;-82
2023/05/30 00:44:18;;;;;;;8.27;2.37;;;12.80;1.00;;;;;;5057198;28;20458;-82
2023/05/30 00:46:45;;;;;;;5.83;1.90;;;12.70;1.00;;;;;;5058351;28;20440;-82
2023/05/30 00:49:13;;;;;;;8.03;1.80;;;12.70;1.00;;;;;;5058309;28;20845;-82
2023/05/30 00:51:39;;;;;;;6.53;2.50;;;12.60;1.00;;;;;;5056993;28;20534;-81
2023/05/30 00:54:07;;;;;;;10.97;2.17;;;12.60;1.00;;;;;;5057169;28;20533;-82
2023/05/30 00:56:35;;;;;;;5.10;2.10;;;12.60;1.00;;;;;;5057191;28;20459;-82
2023/05/30 00:59:02;;;;;;;8.87;2.13;;;12.60;1.00;;;;;;5059026;28;20454;-82
2023/05/30 01:01:32;;;;;;;8.07;2.13;;;12.50;1.00;;;;;;5059678;28;20563;-83
2023/05/30 01:03:59;;;;;;;5.80;1.97;;;12.50;1.00;;;;;;5058276;28;20457;-82
2023/05/30 01:06:29;;;;;;;9.30;2.47;;;12.40;1.00;;;;;;5060669;28;20505;-80
2023/05/30 01:08:58;;;;;;;6.03;2.53;;;12.40;1.00;;;;;;5060439;28;20482;-82
2023/05/30 01:11:34;;;;;;;10.07;2.20;;;12.40;1.00;;;;;;5057796;28;20505;-82
2023/05/30 01:14:11;;;;;;;6.07;1.90;;;12.30;1.00;;;;;;5056191;28;20915;-83
2023/05/30 01:16:44;;;;;;;7.37;2.10;;;12.30;1.00;;;;;;5057213;28;20451;-82
2023/05/30 01:19:28;;;;;;;5.73;1.73;;;12.20;1.00;;;;;;5057345;28;20969;-82
2023/05/30 01:22:03;;;;;;;10.30;2.40;;;12.20;1.00;;;;;;5057543;28;20471;-82
2023/05/30 01:24:36;;;;;;;9.20;2.47;;;12.20;1.00;;;;;;5056433;28;20612;-82
2023/05/30 01:27:11;;;;;;;7.97;2.50;;;12.20;1.00;;;;;;5056350;28;20458;-81
2023/05/30 01:29:41;;;;;;;10.87;2.30;;;12.10;1.00;;;;;;5056796;28;20441;-82
2023/05/30 01:32:09;;;;;;;8.30;2.50;;;12.10;1.00;;;;;;5056865;28;20521;-82
2023/05/30 01:34:36;;;;;;;7.20;1.87;;;12.10;26.10;;;;;;5056573;28;20461;-82
2023/05/30 01:37:03;;;;;;;7.30;1.53;;;12.10;96.70;;;;;;5057021;28;20451;-82
2023/05/30 01:39:30;;;;;;;7.77;3.00;;;12.00;93.30;;;;;;5057328;28;20792;-82
2023/05/30 01:42:05;;;;;;;11.43;2.57;;;12.00;99.90;;;;;;5057402;28;20513;-82
2023/05/30 01:44:36;;;;;;;11.53;2.40;;;12.00;99.90;;;;;;5057215;28;20458;-82
2023/05/30 01:47:13;;;;;;;6.27;1.70;;;11.90;99.90;;;;;;5058885;28;20456;-82
2023/05/30 01:49:46;;;;;;;12.03;2.07;;;11.90;99.90;;;;;;5060817;28;20797;-82
2023/05/30 01:52:17;;;;;;;7.23;2.00;;;11.80;99.90;;;;;;5060604;28;20844;-82
2023/05/30 01:54:48;;;;;;;8.43;2.47;;;11.70;99.90;;;;;;5060300;28;20467;-82
2023/05/30 01:57:17;;;;;;;11.53;3.10;;;11.70;99.90;;;;;;5057981;28;20797;-82
2023/05/30 01:59:45;;;;;;;9.73;2.17;;;11.70;1.00;;;;;;5060776;28;20532;-83
2023/05/30 02:02:14;;;;;;;7.70;2.00;;;11.60;1.00;;;;;;5059840;28;21006;-81
2023/05/30 02:04:41;;;;;;;16.23;2.80;;;11.60;1.00;;;;;;5059396;28;20453;-81
2023/05/30 02:07:08;;;;;;;10.47;2.67;;;11.50;1.00;;;;;;5059795;28;20502;-82
2023/05/30 02:09:35;;;;;;;7.47;2.40;;;11.50;41.50;;;;;;5059770;28;20464;-82
2023/05/30 02:12:02;;;;;;;19.10;2.97;;;11.50;99.90;;;;;;5060421;28;20502;-82
2023/05/30 02:14:30;;;;;;;6.93;2.37;;;11.50;24.70;;;;;;5059212;28;20461;-81
2023/05/30 02:16:59;;;;;;;5.40;2.00;;;11.50;99.90;;;;;;5060250;28;20454;-82
2023/05/30 02:19:27;;;;;;;7.67;2.33;;;11.50;99.90;;;;;;5059955;28;20460;-82
2023/05/30 02:21:54;;;;;;;7.10;3.03;;;11.40;1.00;;;;;;5060076;28;20972;-82
2023/05/30 02:24:22;;;;;;;9.70;1.70;;;11.40;1.00;;;;;;5059245;28;20449;-82
2023/05/30 02:26:49;;;;;;;9.20;2.43;;;11.40;1.00;;;;;;5059709;28;20539;-82
2023/05/30 02:29:16;;;;;;;8.57;2.30;;;11.40;99.90;;;;;;5059418;28;20954;-81
2023/05/30 02:31:43;;;;;;;8.07;2.80;;;11.40;1.00;;;;;;5058352;28;20489;-82
2023/05/30 02:34:10;;;;;;;8.23;2.10;;;11.40;1.00;;;;;;5058452;28;20545;-82
2023/05/30 02:36:38;;;;;;;7.17;2.23;;;11.30;23.30;;;;;;5059339;28;20454;-82
2023/05/30 02:39:07;;;;;;;12.60;3.10;;;11.40;85.40;;;;;;5059500;28;20458;-82
2023/05/30 02:41:33;;;;;;;7.97;2.00;;;11.40;99.90;;;;;;5059421;28;20489;-82
2023/05/30 02:44:00;;;;;;;6.80;2.10;;;11.40;99.90;;;;;;5067100;28;20531;-82
2023/05/30 02:46:27;;;;;;;7.80;2.27;;;11.30;99.90;;;;;;5073196;28;20925;-81
2023/05/30 02:48:54;;;;;;;7.53;1.87;;;11.30;99.90;;;;;;5074413;28;20455;-82
2023/05/30 02:51:21;;;;;;;7.33;1.80;;;11.30;99.90;;;;;;5068658;28;20489;-83
2023/05/30 02:53:49;;;;;;;7.50;2.47;;;11.30;1.00;;;;;;5059850;28;20905;-83
2023/05/30 02:56:16;;;;;;;9.50;2.90;;;11.30;99.90;;;;;;5058663;28;20447;-82
2023/05/30 02:58:43;;;;;;;6.30;2.07;;;11.30;99.90;;;;;;5059228;28;20459;-82
2023/05/30 03:01:10;;;;;;;12.13;3.70;;;11.40;99.90;;;;;;5059923;28;20912;-82
2023/05/30 03:03:37;;;;;;;7.00;2.13;;;11.40;1.00;;;;;;5059172;28;20463;-82
2023/05/30 03:06:05;;;;;;;8.63;2.30;;;11.40;99.90;;;;;;5059405;28;20443;-83
2023/05/30 03:08:32;;;;;;;6.63;2.30;;;11.40;99.90;;;;;;5059062;28;20484;-82
2023/05/30 03:11:00;;;;;;;9.90;2.07;;;11.50;1.00;;;;;;5058677;28;20907;-84
2023/05/30 03:13:27;;;;;;;13.60;2.97;;;11.50;1.00;;;;;;5058071;28;20457;-81
2023/05/30 03:15:53;;;;;;;6.87;2.70;;;11.50;1.00;;;;;;5059116;28;20534;-82
2023/05/30 03:18:20;;;;;;;9.53;2.53;;;11.60;1.00;;;;;;5058694;28;20447;-82
2023/05/30 03:20:47;;;;;;;7.13;2.30;;;11.60;99.90;;;;;;5058267;28;20445;-82
2023/05/30 03:23:14;;;;;;;7.13;2.50;;;11.70;1.00;;;;;;5057461;28;20456;-82
2023/05/30 03:25:41;;;;;;;8.40;2.40;;;11.70;1.00;;;;;;5059219;28;20450;-82
2023/05/30 03:28:09;;;;;;;12.60;3.40;;;11.70;99.90;;;;;;5058914;28;20515;-82
2023/05/30 03:30:36;;;;;;;9.13;3.00;;;11.80;99.90;;;;;;5058419;28;20536;-81
2023/05/30 03:33:04;;;;;;;8.80;2.93;;;11.80;1.00;;;;;;5057616;28;20536;-82
2023/05/30 03:35:30;;;;;;;11.03;2.50;;;11.80;99.90;;;;;;5057428;28;20822;-82
2023/05/30 03:37:57;;;;;;;7.83;3.00;;;11.90;99.90;;;;;;5058107;28;20536;-82
2023/05/30 03:40:24;;;;;;;9.10;2.70;;;11.90;99.90;;;;;;5057979;28;20446;-82
2023/05/30 03:42:51;;;;;;;9.03;3.20;;;11.90;99.90;;;;;;5056799;28;20517;-81
2023/05/30 03:45:19;;;;;;;7.73;3.23;;;12.00;99.90;;;;;;5057475;28;20454;-81
2023/05/30 03:47:46;;;;;;;6.77;3.50;;;12.00;1.00;;;;;;5058172;28;20448;-82
2023/05/30 03:50:13;;;;;;;12.67;2.73;;;12.00;99.90;;;;;;5058124;28;20463;-82
2023/05/30 03:52:40;;;;;;;8.80;3.30;;;12.10;1.00;;;;;;5056768;28;20495;-82
2023/05/30 03:55:07;;;;;;;11.63;2.90;;;12.10;99.90;;;;;;5057947;28;20445;-82
2023/05/30 03:57:34;;;;;;;9.20;3.10;;;12.00;47.90;;;;;;5057634;28;20441;-82
2023/05/30 04:00:01;;;;;;;12.43;3.20;;;12.00;1.00;;;;;;5056774;28;20959;-82
2023/05/30 04:02:29;;;;;;;9.33;3.50;;;12.00;99.90;;;;;;5057407;28;20561;-82
2023/05/30 04:04:56;;;;;;;15.37;3.80;;;12.00;1.00;;;;;;5057972;28;20450;-82
2023/05/30 04:07:24;;;;;;;10.60;3.57;;;12.00;1.00;;;;;;5058035;28;20452;-82
2023/05/30 04:09:51;;;;;;;13.57;5.53;;;12.00;1.00;;;;;;5057127;28;20461;-82
2023/05/30 04:12:18;;;;;;;9.80;3.57;;;12.10;99.90;;;;;;5056979;28;20521;-82
2023/05/30 04:14:45;;;;;;;14.63;4.20;;;12.10;99.90;;;;;;5057626;28;20461;-82
2023/05/30 04:17:12;;;;;;;12.33;4.23;;;12.20;99.90;;;;;;5057495;28;20549;-82
2023/05/30 04:19:40;;;;;;;10.67;4.83;;;12.20;1.00;;;;;;5058015;28;20801;-81
2023/05/30 04:22:08;;;;;;;15.00;4.20;;;12.20;1.00;;;;;;5057743;28;20480;-81
2023/05/30 04:24:35;;;;;;;10.77;3.47;;;12.30;1.00;;;;;;5056575;28;20470;-81
2023/05/30 04:27:02;;;;;;;9.60;4.00;;;12.30;31.00;;;;;;5057420;28;20451;-81
2023/05/30 04:29:29;;;;;;;12.57;5.20;;;12.30;1.00;;;;;;5057517;28;21227;-82
2023/05/30 04:31:56;;;;;;;10.07;3.63;;;12.40;99.90;;;;;;5057493;28;20491;-82
2023/05/30 04:34:24;;;;;;;14.83;4.40;;;12.40;1.00;;;;;;5056798;28;20477;-81
2023/05/30 04:36:53;;;;;;;10.97;4.83;;;12.30;99.90;;;;;;5057752;28;20493;-81
2023/05/30 04:39:22;;;;;;;12.07;4.37;;;12.40;1.00;;;;;;5057267;28;20555;-81
2023/05/30 04:41:49;;;;;;;9.57;4.37;;;12.40;99.90;;;;;;5082621;22;20499;-80
2023/05/30 04:44:18;;;;;;;10.30;4.03;;;12.40;99.90;;;;;;5063779;28;20482;-82
2023/05/30 04:46:46;;;;;;;7.50;3.97;;;12.40;99.90;;;;;;5067820;28;20451;-82
2023/05/30 04:49:13;;;;;;;9.93;4.67;;;12.40;92.30;;;;;;5070136;28;20514;-81
2023/05/30 04:51:40;;;;;;;15.60;5.00;;;12.40;26.40;;;;;;5068514;28;20489;-81
2023/05/30 04:54:08;;;;;;;10.47;4.87;;;12.40;99.90;;;;;;5061943;28;20443;-83
2023/05/30 04:56:35;;;;;;;12.10;4.77;;;12.40;99.90;;;;;;5062481;28;20448;-83
2023/05/30 04:59:02;;;;;;;13.70;4.93;;;12.40;99.90;;;;;;5063334;28;20466;-81
2023/05/30 05:01:29;;;;;;;9.37;4.70;;;12.50;1.00;;;;;;5062488;28;20443;-82
2023/05/30 05:03:56;;;;;;;13.23;5.83;;;12.50;99.90;;;;;;5060164;28;20458;-82
2023/05/30 05:06:22;;;;;;;17.83;6.13;;;12.60;1.00;;;;;;5060646;28;20455;-82
2023/05/30 05:08:49;;;;;;;16.00;6.23;;;12.60;99.90;;;;;;5059817;28;20447;-83
2023/05/30 05:11:17;;;;;;;20.10;5.53;;;12.60;1.00;;;;;;5060316;28;20526;-81
2023/05/30 05:13:44;;;;;;;13.07;4.33;;;12.80;99.90;;;;;;5060077;28;20549;-82
2023/05/30 05:16:11;;;;;;;15.70;4.27;;;12.90;99.90;;;;;;5060460;28;20451;-82
2023/05/30 05:18:38;;;;;;;12.60;4.70;;;12.90;1.00;;;;;;5059733;28;20552;-82
2023/05/30 05:21:06;;;;;;;10.77;3.97;;;13.00;1.00;;;;;;5059189;28;20494;-82
2023/05/30 05:23:33;;;;;;;16.30;4.80;;;13.10;99.90;;;;;;5062621;28;21021;-83
2023/05/30 05:26:00;;;;;;;11.30;4.23;;;13.10;99.90;;;;;;5062598;28;20459;-83
2023/05/30 05:28:29;;;;;;;10.07;4.20;;;13.20;99.90;;;;;;5063341;28;20456;-82
2023/05/30 05:30:55;;;;;;;16.63;5.50;;;13.30;99.90;;;;;;5062601;28;20985;-82
2023/05/30 05:33:22;;;;;;;12.13;4.67;;;13.30;99.90;;;;;;5061295;28;20514;-82
2023/05/30 05:35:49;;;;;;;9.90;4.40;;;13.40;22.20;;;;;;5061782;28;20459;-82
2023/05/30 05:38:16;;;;;;;13.43;4.63;;;13.40;1.00;;;;;;5062859;28;20459;-82
2023/05/30 05:40:43;;;;;;;10.00;4.30;;;13.40;1.00;;;;;;5062711;28;20521;-82
2023/05/30 05:43:11;;;;;;;9.20;4.07;;;13.40;1.00;;;;;;5060815;28;20550;-84
2023/05/30 05:45:39;;;;;;;10.87;4.03;;;13.40;1.00;;;;;;5061296;28;20491;-82
2023/05/30 05:48:06;;;;;;;9.27;5.10;;;13.40;1.00;;;;;;5061953;28;20459;-82
2023/05/30 05:50:33;;;;;;;11.17;4.17;;;13.40;1.00;;;;;;5062185;28;20525;-81
2023/05/30 05:53:00;;;;;;;12.90;4.77;;;13.50;1.00;;;;;;5061464;28;20487;-81
2023/05/30 05:55:26;;;;;;;8.77;4.07;;;13.50;99.90;;;;;;5062598;28;20451;-80
2023/05/30 05:57:53;;;;;;;12.27;5.00;;;13.60;99.90;;;;;;5060867;28;20458;-81
2023/05/30 06:00:20;;;;;;;8.90;4.30;;;13.60;1.00;;;;;;5062233;28;20451;-80
2023/05/30 06:02:49;;;;;;;10.80;4.33;;;13.70;1.00;;;;;;5061104;28;20464;-80
2023/05/30 06:05:15;;;;;;;13.73;4.27;;;13.80;99.90;;;;;;5062058;28;20450;-81
2023/05/30 06:07:42;;;;;;;12.00;4.10;;;13.90;99.90;;;;;;5062294;28;20455;-81
2023/05/30 06:10:10;;;;;;;8.90;4.03;;;13.90;99.90;;;;;;5061561;28;20457;-80
2023/05/30 06:12:37;;;;;;;9.47;3.80;;;14.00;99.90;;;;;;5060996;28;21076;-80
2023/05/30 06:15:04;;;;;;;13.40;4.37;;;14.00;99.90;;;;;;5061954;28;20934;-81
2023/05/30 06:17:31;;;;;;;14.43;5.33;;;14.10;99.90;;;;;;5061602;28;20447;-80
2023/05/30 06:19:59;;;;;;;10.17;4.63;;;14.20;99.90;;;;;;5061532;28;20517;-81
2023/05/30 06:22:26;;;;;;;9.93;4.30;;;14.20;99.90;;;;;;5060455;28;20565;-80
2023/05/30 06:24:53;;;;;;;15.30;4.80;;;14.30;99.90;;;;;;5061761;28;20449;-80
2023/05/30 06:27:20;;;;;;;9.57;5.33;;;14.40;99.90;;;;;;5061296;28;20448;-81
2023/05/30 06:29:47;;;;;;;12.10;5.03;;;14.40;99.90;;;;;;5061244;28;20460;-80
2023/05/30 06:32:13;;;;;;;9.23;5.90;;;14.60;99.90;;;;;;5060925;28;20501;-80
2023/05/30 06:34:40;;;;;;;10.70;4.70;;;14.70;99.90;;;;;;5060003;28;20466;-80
2023/05/30 06:37:10;;;;;;;8.67;4.53;;;14.70;99.90;;;;;;5061052;28;20456;-80
2023/05/30 06:39:37;;;;;;;15.50;5.47;;;14.80;24.60;;;;;;5061904;28;20460;-81
2023/05/30 06:42:04;;;;;;;16.87;5.30;;;14.80;1.00;;;;;;5060770;28;20563;-81
2023/05/30 06:44:30;;;;;;;7.97;4.57;;;14.80;1.00;;;;;;5060552;28;20449;-80
2023/05/30 06:46:57;;;;;;;18.33;5.73;;;14.90;1.00;;;;;;5060786;28;20531;-81
2023/05/30 06:49:24;;;;;;;12.50;4.73;;;15.00;1.00;;;;;;5061444;28;20541;-81
2023/05/30 06:51:51;;;;;;;13.10;5.20;;;15.00;1.00;;;;;;5060892;28;20537;-80
2023/05/30 06:54:19;;;;;;;15.80;5.77;;;14.90;1.00;;;;;;5060136;28;20465;-81
2023/05/30 06:56:47;;;;;;;10.57;4.93;;;14.90;1.00;;;;;;5060115;28;20460;-80
2023/05/30 06:59:13;;;;;;;7.77;4.80;;;14.80;1.00;;;;;;5062645;28;20459;-78
2023/05/30 07:01:40;;;;;;;9.97;4.67;;;14.80;1.00;;;;;;5063364;28;21046;-80
2023/05/30 07:04:07;;;;;;;11.60;5.90;;;14.80;1.00;;;;;;5060062;28;20486;-80
2023/05/30 07:06:35;;;;;;;9.13;5.40;;;14.80;1.00;;;;;;5060725;28;20469;-79
2023/05/30 07:09:02;;;;;;;9.67;6.17;;;14.80;1.00;;;;;;5060875;28;20451;-81
2023/05/30 07:11:30;;;;;;;8.40;5.20;;;14.90;1.00;;;;;;5060439;28;20530;-81
2023/05/30 07:13:57;;;;;;;11.37;6.70;;;14.90;1.00;;;;;;5060636;28;20495;-80
2023/05/30 07:16:24;;;;;;;15.83;5.43;;;14.90;1.00;;;;;;5061197;28;20529;-80
2023/05/30 07:18:51;;;;;;;10.93;5.63;;;14.80;1.00;;;;;;5061291;28;20516;-80
2023/05/30 07:21:17;;;;;;;11.43;4.97;;;14.80;1.00;;;;;;5061182;28;20518;-79
2023/05/30 07:23:44;;;;;;;14.33;5.93;;;14.70;1.00;;;;;;5060357;28;20470;-81
2023/05/30 07:26:11;;;;;;;13.10;5.40;;;14.80;1.00;;;;;;5061236;28;20887;-80
2023/05/30 07:28:39;;;;;;;12.00;5.70;;;14.70;1.00;;;;;;5060864;28;20535;-79
2023/05/30 07:31:06;;;;;;;10.80;4.90;;;14.70;1.00;;;;;;5060772;28;20458;-80
2023/05/30 07:33:33;;;;;;;10.00;5.23;;;14.70;1.00;;;;;;5059484;28;20498;-80
2023/05/30 07:35:59;;;;;;;12.37;6.33;;;14.80;1.00;;;;;;5060808;28;20478;-79
2023/05/30 07:38:26;;;;;;;15.90;6.70;;;14.90;1.00;;;;;;5060036;28;20482;-79
2023/05/30 07:40:53;;;;;;;14.57;6.37;;;15.10;1.00;;;;;;5060968;28;20463;-80
2023/05/30 07:43:20;;;;;;;15.77;5.73;;;15.10;1.00;;;;;;5060134;28;20476;-79
2023/05/30 07:45:48;;;;;;;12.40;6.17;;;15.10;1.00;;;;;;5061603;28;20461;-78
2023/05/30 07:48:15;;;;;;;12.30;4.97;;;15.20;1.00;;;;;;5062397;28;20455;-78
2023/05/30 07:50:42;;;;;;;13.03;5.80;;;15.20;1.00;;;;;;5062939;28;20460;-79
2023/05/30 07:53:08;;;;;;;12.57;7.10;;;15.40;1.00;;;;;;5059584;28;20582;-80
2023/05/30 07:55:35;;;;;;;13.00;5.90;;;15.50;1.00;;;;;;5061026;28;20554;-80
2023/05/30 07:58:02;;;;;;;8.83;5.47;;;15.50;1.00;;;;;;5059696;28;20451;-79
2023/05/30 08:00:29;;;;;;;10.57;4.83;;;15.60;1.00;;;;;;5060478;28;20455;-79
2023/05/30 08:02:57;;;;;;;9.93;4.90;;;15.60;1.00;;;;;;5060429;28;20499;-80
2023/05/30 08:05:24;;;;;;;11.70;5.40;;;15.60;1.00;;;;;;5060689;28;20460;-80
2023/05/30 08:07:51;;;;;;;12.90;5.17;;;15.70;1.00;;;;;;5060937;28;20455;-78
2023/05/30 08:10:18;;;;;;;9.10;5.20;;;15.70;1.00;;;;;;5060812;28;20562;-80
2023/05/30 08:12:44;;;;;;;11.63;4.83;;;15.80;1.00;;;;;;5059887;28;20497;-80
2023/05/30 08:15:11;;;;;;;12.63;5.53;;;15.80;1.00;;;;;;5060593;28;20559;-79
2023/05/30 08:17:40;;;;;;;9.60;4.97;;;15.90;1.00;;;;;;5060552;28;20468;-80
2023/05/30 08:20:10;;;;;;;9.60;5.07;;;16.00;1.00;;;;;;5060909;28;20452;-80
2023/05/30 08:22:39;;;;;;;11.87;5.97;;;16.10;1.00;;;;;;5059419;28;20494;-79
2023/05/30 08:25:07;;;;;;;13.03;4.80;;;16.20;1.00;;;;;;5059841;28;20515;-79
2023/05/30 08:27:37;;;;;;;11.60;5.87;;;16.40;1.00;;;;;;5059991;28;20502;-80
2023/05/30 08:30:05;;;;;;;10.43;5.27;;;16.70;1.00;;;;;;5060388;28;20459;-79
2023/05/30 08:32:32;;;;;;;10.50;4.90;;;17.00;1.00;;;;;;5058794;28;20492;-80
2023/05/30 08:35:00;;;;;;;9.90;5.00;;;17.50;1.00;;;;;;5060785;28;20532;-80
2023/05/30 08:37:28;;;;;;;8.90;4.30;;;17.90;1.00;;;;;;5059991;28;20484;-80
2023/05/30 08:39:55;;;;;;;10.40;5.30;;;18.50;99.90;;;;;;5059427;28;20519;-80
2023/05/30 08:42:22;;;;;;;14.17;5.70;;;19.00;99.90;;;;;;5059159;28;20516;-79
2023/05/30 08:44:49;;;;;;;8.90;4.17;;;19.20;99.90;;;;;;5060179;28;20981;-80
2023/05/30 08:47:17;;;;;;;8.93;4.70;;;19.40;99.90;;;;;;5060472;28;20455;-79
2023/05/30 08:49:45;;;;;;;15.80;5.17;;;19.60;99.90;;;;;;5059867;28;20879;-80
2023/05/30 08:52:13;;;;;;;8.80;4.87;;;19.60;99.90;;;;;;5060066;28;20475;-81
2023/05/30 08:54:47;;;;;;;13.03;5.23;;;19.70;99.90;;;;;;5059404;28;20444;-80
2023/05/30 08:57:19;;;;;;;10.57;4.87;;;19.60;99.90;;;;;;5061381;28;20494;-81
2023/05/30 08:59:46;;;;;;;12.33;4.90;;;19.60;99.90;;;;;;5064695;28;20478;-80
2023/05/30 09:02:14;;;;;;;8.43;4.57;;;19.40;99.90;;;;;;5064270;28;20478;-80
2023/05/30 09:04:42;;;;;;;10.00;4.47;;;19.40;99.90;;;;;;5063911;28;20464;-80
2023/05/30 09:07:10;;;;;;;9.33;4.40;;;19.50;99.90;;;;;;5064841;28;20808;-80
2023/05/30 09:09:37;;;;;;;11.33;5.30;;;19.50;99.90;;;;;;5066410;28;20978;-79
2023/05/30 09:12:06;;;;;;;16.27;4.47;;;19.50;99.90;;;;;;5068583;28;20481;-80
2023/05/30 09:14:32;;;;;;;10.87;4.77;;;19.40;99.90;;;;;;5064444;28;20585;-79
2023/05/30 09:16:59;;;;;;;9.33;5.03;;;19.50;99.90;;;;;;5065305;28;20515;-82
2023/05/30 09:19:27;;;;;;;12.83;4.87;;;19.50;99.90;;;;;;5064349;28;20451;-81
2023/05/30 09:21:53;;;;;;;11.63;5.80;;;19.60;99.90;;;;;;5064289;28;20473;-81
2023/05/30 09:24:21;;;;;;;8.63;4.70;;;19.70;99.90;;;;;;5063580;28;20467;-81
2023/05/30 09:27:01;;;;;;;13.37;4.27;;;19.70;99.90;;;;;;5063975;28;20477;-81
2023/05/30 09:29:29;;;;;;;11.60;5.33;;;19.90;99.90;;;;;;5064134;28;20566;-81
2023/05/30 09:31:57;;;;;;;12.07;4.90;;;20.00;99.90;;;;;;5063121;28;20569;-81
2023/05/30 09:34:23;;;;;;;11.17;5.13;;;20.20;99.90;;;;;;5062532;28;20550;-81
2023/05/30 09:36:55;;;;;;;7.70;4.90;;;20.30;99.90;;;;;;5063027;28;20550;-81
2023/05/30 09:39:25;;;;;;;11.27;6.10;;;20.40;99.90;;;;;;5063783;28;20460;-81
2023/05/30 09:41:56;;;;;;;11.07;5.10;;;20.50;99.90;;;;;;5063088;28;20499;-80
2023/05/30 09:44:22;;;;;;;9.83;4.10;;;20.50;99.90;;;;;;5061992;28;20438;-81
2023/05/30 09:46:55;;;;;;;8.47;4.03;;;20.70;99.90;;;;;;5063004;28;20460;-82
2023/05/30 09:49:22;;;;;;;5.87;4.27;;;20.80;99.90;;;;;;5063375;28;20440;-81
2023/05/30 09:51:50;;;;;;;10.60;4.80;;;20.80;99.90;;;;;;5062360;28;20501;-81
2023/05/30 09:54:17;;;;;;;12.33;4.97;;;20.80;99.90;;;;;;5061195;28;20483;-81
2023/05/30 09:56:44;;;;;;;11.60;4.60;;;21.10;99.90;;;;;;5061272;28;20462;-80
2023/05/30 09:59:13;;;;;;;9.40;4.20;;;21.20;99.90;;;;;;5070727;28;20456;-81
2023/05/30 10:01:41;;;;;;;8.40;4.20;;;21.30;99.90;;;;;;5072172;28;20455;-80
2023/05/30 10:04:13;;;;;;;11.77;4.07;;;21.50;99.90;;;;;;5068566;28;20451;-80
2023/05/30 10:06:42;;;;;;;10.33;5.07;;;21.70;99.90;;;;;;5070629;28;20479;-81
2023/05/30 10:09:11;;;;;;;10.60;4.57;;;21.90;99.90;;;;;;5065774;28;20458;-81
2023/05/30 10:11:39;;;;;;;7.97;4.47;;;22.10;99.90;;;;;;5062430;28;20466;-81
2023/05/30 10:14:06;;;;;;;11.00;4.70;;;22.30;99.90;;;;;;5060713;28;20533;-81
2023/05/30 10:16:35;;;;;;;9.00;4.50;;;22.40;99.90;;;;;;5062247;28;20444;-81
2023/05/30 10:19:04;;;;;;;8.67;4.60;;;22.60;99.90;;;;;;5062216;28;20478;-80
2023/05/30 10:21:37;;;;;;;7.77;4.10;;;22.80;99.90;;;;;;5060950;28;20460;-81
2023/05/30 10:24:05;;;;;;;13.37;5.00;;;23.00;99.90;;;;;;5061068;28;20448;-81
2023/05/30 10:26:36;;;;;;;7.23;4.80;;;23.20;99.90;;;;;;5060951;28;20455;-82
2023/05/30 10:29:07;;;;;;;7.07;4.00;;;23.30;99.90;;;;;;5061247;28;20938;-82
2023/05/30 10:31:35;;;;;;;11.13;4.20;;;23.40;99.90;;;;;;5060654;28;21041;-80
2023/05/30 10:34:05;;;;;;;10.90;4.27;;;23.60;99.90;;;;;;5059916;28;20487;-81
2023/05/30 10:36:35;;;;;;;10.67;4.60;;;23.60;99.90;;;;;;5061807;28;20525;-81
2023/05/30 10:39:11;;;;;;;9.63;4.47;;;23.80;99.90;;;;;;5061031;28;20459;-81
2023/05/30 10:41:42;;;;;;;12.93;4.47;;;23.90;99.90;;;;;;5059825;28;20451;-81
2023/05/30 10:44:17;;;;;;;10.17;4.23;;;24.10;99.90;;;;;;5084282;22;20506;-78
2023/05/30 10:46:57;;;;;;;10.57;4.53;;;24.40;99.90;;;;;;5062914;28;20434;-79
2023/05/30 10:49:26;;;;;;;7.87;4.17;;;24.60;99.90;;;;;;5062103;28;20447;-79
2023/05/30 10:52:00;;;;;;;7.70;3.60;;;24.80;99.90;;;;;;5061185;28;20498;-80
2023/05/30 10:54:31;;;;;;;8.00;3.97;;;25.10;99.90;;;;;;5058319;28;20487;-81
2023/05/30 10:57:01;;;;;;;6.73;3.73;;;25.40;99.90;;;;;;5057493;28;20463;-80
2023/05/30 10:59:28;;;;;;;7.80;4.00;;;25.80;99.90;;;;;;5058232;28;20458;-79
2023/05/30 11:02:00;;;;;;;10.57;4.70;;;26.00;99.90;;;;;;5058868;28;20454;-80
2023/05/30 11:04:32;;;;;;;7.30;4.10;;;26.30;99.90;;;;;;5058022;28;20486;-79
2023/05/30 11:07:03;;;;;;;8.13;4.13;;;26.90;99.90;;;;;;5058741;28;20459;-80
2023/05/30 11:09:30;;;;;;;10.43;4.20;;;27.50;99.90;;;;;;5058789;28;20504;-80
2023/05/30 11:11:58;;;;;;;6.70;3.40;;;28.00;99.90;;;;;;5058860;28;20523;-81
2023/05/30 11:14:26;;;;;;;7.70;3.70;;;28.40;99.90;;;;;;5058169;28;20493;-81
2023/05/30 11:17:00;;;;;;;6.97;3.53;;;28.80;99.90;;;;;;5059294;28;20448;-81
2023/05/30 11:19:27;;;;;;;6.83;3.33;;;29.00;99.90;;;;;;5059361;28;20828;-80
2023/05/30 11:22:02;;;;;;;6.80;3.67;;;29.30;99.90;;;;;;5060407;28;20452;-80
2023/05/30 11:24:30;;;;;;;9.13;3.80;;;29.50;99.90;;;;;;5060214;28;20478;-81
2023/05/30 11:27:00;;;;;;;7.43;3.60;;;29.90;99.90;;;;;;5059331;28;20462;-80
2023/05/30 11:29:35;;;;;;;7.67;4.00;;;30.10;99.90;;;;;;5059743;28;20451;-79
2023/05/30 11:32:02;;;;;;;7.77;4.07;;;30.40;99.90;;;;;;5060314;28;20443;-80
2023/05/30 11:34:29;;;;;;;8.10;3.80;;;30.70;99.90;;;;;;5059150;28;20526;-82
2023/05/30 11:36:57;;;;;;;8.10;4.50;;;30.90;99.90;;;;;;5059418;28;20460;-81
2023/05/30 11:39:26;;;;;;;8.63;4.10;;;30.80;99.90;;;;;;5059207;28;20452;-80
2023/05/30 11:41:54;;;;;;;8.70;4.20;;;31.20;99.90;;;;;;5060944;28;20468;-80
2023/05/30 11:44:21;;;;;;;6.50;3.63;;;31.50;99.90;;;;;;5060647;28;20502;-81
2023/05/30 11:46:58;;;;;;;6.50;3.70;;;31.70;99.90;;;;;;5059498;28;20472;-82
2023/05/30 11:49:25;;;;;;;6.20;3.73;;;31.90;99.90;;;;;;5058690;28;20413;-81
2023/05/30 11:51:53;;;;;;;9.03;3.93;;;31.70;99.90;;;;;;5058287;28;20478;-81
2023/05/30 11:54:20;;;;;;;6.93;3.60;;;31.90;99.90;;;;;;5058220;28;20484;-83
2023/05/30 11:56:50;;;;;;;7.37;3.77;;;32.00;99.90;;;;;;5056778;28;20823;-80
2023/05/30 11:59:21;;;;;;;8.13;4.17;;;32.10;99.90;;;;;;5059908;28;20447;-83
2023/05/30 12:01:57;;;;;;;6.77;3.60;;;32.30;99.90;;;;;;5058841;28;20974;-81
2023/05/30 12:04:26;;;;;;;7.47;3.80;;;32.50;99.90;;;;;;5058909;28;20468;-82
2023/05/30 12:06:53;;;;;;;7.40;3.57;;;32.60;99.90;;;;;;5060528;28;20467;-81
2023/05/30 12:09:21;;;;;;;10.77;3.50;;;32.80;99.90;;;;;;5058585;28;20452;-81
2023/05/30 12:11:58;;;;;;;6.53;3.77;;;32.80;99.90;;;;;;5058148;28;20448;-81
2023/05/30 12:14:37;;;;;;;6.80;3.90;;;32.90;99.90;;;;;;5056594;28;20502;-80
2023/05/30 12:17:11;;;;;;;6.57;3.60;;;33.10;99.90;;;;;;5058670;28;20452;-80
2023/05/30 12:19:38;;;;;;;6.77;3.60;;;33.30;99.90;;;;;;5057719;28;20436;-79
2023/05/30 12:22:07;;;;;;;7.10;3.53;;;33.60;99.90;;;;;;5057648;28;20455;-80
2023/05/30 12:24:36;;;;;;;6.30;2.90;;;33.50;99.90;;;;;;5058395;28;20464;-81
2023/05/30 12:27:06;;;;;;;6.97;2.73;;;33.70;99.90;;;;;;5057770;28;20452;-80
2023/05/30 12:29:34;;;;;;;7.23;3.00;;;33.70;99.90;;;;;;5057669;28;20447;-81
2023/05/30 12:32:02;;;;;;;6.27;3.43;;;33.70;99.90;;;;;;5057136;28;20452;-82
2023/05/30 12:34:42;;;;;;;7.43;3.30;;;33.80;99.90;;;;;;5057144;28;20570;-79
2023/05/30 12:37:10;;;;;;;6.83;3.40;;;33.00;99.90;;;;;;5056955;28;20436;-82
2023/05/30 12:39:47;;;;;;;6.50;3.50;;;33.40;99.90;;;;;;5057524;28;20475;-81
2023/05/30 12:42:21;;;;;;;6.23;3.43;;;33.70;99.90;;;;;;5057063;28;20456;-78
2023/05/30 12:44:53;;;;;;;7.23;3.90;;;34.00;99.90;;;;;;5057709;28;20458;-80
2023/05/30 12:47:21;;;;;;;8.50;3.60;;;33.90;99.90;;;;;;5057990;28;20460;-81
2023/05/30 12:49:48;;;;;;;5.97;3.13;;;33.70;99.90;;;;;;5057573;28;20452;-80